createdAt,value
2023-04-15T00:01:19.808Z,8.75
2023-04-15T00:03:48.185Z,8.82
2023-04-15T00:06:15.984Z,8.79
2023-04-15T00:08:43.963Z,8.86
2023-04-15T00:11:11.532Z,8.89
2023-04-15T00:13:39.936Z,8.70
2023-04-15T00:16:11.894Z,8.90
2023-04-15T00:18:39.398Z,8.82
2023-04-15T00:21:07.022Z,9.10
2023-04-15T00:23:34.600Z,8.94
2023-04-15T00:26:02.133Z,9.00
2023-04-15T00:28:29.807Z,8.97
2023-04-15T00:30:57.997Z,8.97
2023-04-15T00:33:25.694Z,9.17
2023-04-15T00:35:54.105Z,9.31
2023-04-15T00:38:21.321Z,9.19
2023-04-15T00:40:48.908Z,9.15
2023-04-15T00:43:17.883Z,9.15
2023-04-15T00:45:45.375Z,9.06
2023-04-15T00:48:13.173Z,8.98
2023-04-15T00:50:41.670Z,9.10
2023-04-15T00:53:09.045Z,9.00
2023-04-15T00:55:36.586Z,9.02
2023-04-15T00:58:04.122Z,8.95
2023-04-15T01:00:31.802Z,8.97
2023-04-15T01:02:59.347Z,8.94
2023-04-15T01:05:27.358Z,8.97
2023-04-15T01:07:55.763Z,8.88
2023-04-15T01:10:22.755Z,8.81
2023-04-15T01:12:50.451Z,8.81
2023-04-15T01:15:17.563Z,8.70
2023-04-15T01:17:45.429Z,8.64
2023-04-15T01:20:12.921Z,8.67
2023-04-15T01:22:41.401Z,8.65
2023-04-15T01:25:13.663Z,8.56
2023-04-15T01:27:42.796Z,8.53
2023-04-15T01:30:10.881Z,8.44
2023-04-15T01:32:38.872Z,8.30
2023-04-15T01:35:06.685Z,8.19
2023-04-15T01:37:34.401Z,8.03
2023-04-15T01:40:01.659Z,7.89
2023-04-15T01:42:29.238Z,7.95
2023-04-15T01:44:56.788Z,7.99
2023-04-15T01:47:24.191Z,8.23
2023-04-15T01:49:52.045Z,8.30
2023-04-15T01:52:19.627Z,8.28
2023-04-15T01:54:47.387Z,8.36
2023-04-15T01:57:14.657Z,8.32
2023-04-15T01:59:42.530Z,8.13
2023-04-15T02:02:09.588Z,8.39
2023-04-15T02:04:37.216Z,8.26
2023-04-15T02:07:04.426Z,8.46
2023-04-15T02:09:32.129Z,8.46
2023-04-15T02:11:59.866Z,8.26
2023-04-15T02:14:27.407Z,8.19
2023-04-15T02:16:55.044Z,8.00
2023-04-15T02:19:22.468Z,7.81
2023-04-15T02:21:49.730Z,7.72
2023-04-15T02:24:18.888Z,7.57
2023-04-15T02:26:47.008Z,7.50
2023-04-15T02:29:15.930Z,7.41
2023-04-15T02:31:44.397Z,7.26
2023-04-15T02:34:12.021Z,7.40
2023-04-15T02:36:41.792Z,7.30
2023-04-15T02:39:09.238Z,7.40
2023-04-15T02:41:37.155Z,7.29
2023-04-15T02:44:05.295Z,7.23
2023-04-15T02:46:32.591Z,7.19
2023-04-15T02:49:00.573Z,7.01
2023-04-15T02:51:32.161Z,6.98
2023-04-15T02:53:59.586Z,7.09
2023-04-15T02:56:27.712Z,6.91
2023-04-15T02:58:56.609Z,6.90
2023-04-15T03:01:24.385Z,7.21
2023-04-15T03:03:51.997Z,7.19
2023-04-15T03:06:19.484Z,6.93
2023-04-15T03:08:47.047Z,7.02
2023-04-15T03:11:16.511Z,7.13
2023-04-15T03:13:43.985Z,7.02
2023-04-15T03:16:22.666Z,6.97
2023-04-15T03:18:50.504Z,6.85
2023-04-15T03:21:18.482Z,6.64
2023-04-15T03:23:46.544Z,6.81
2023-04-15T03:26:30.673Z,6.86
2023-04-15T03:29:02.348Z,6.89
2023-04-15T03:31:30.165Z,6.91
2023-04-15T03:33:57.585Z,6.76
2023-04-15T03:36:25.026Z,6.75
2023-04-15T03:38:53.299Z,6.87
2023-04-15T03:41:20.873Z,6.91
2023-04-15T03:43:48.214Z,6.92
2023-04-15T03:46:16.041Z,6.83
2023-04-15T03:48:43.585Z,6.70
2023-04-15T03:51:11.249Z,6.70
2023-04-15T03:53:38.608Z,6.88
2023-04-15T03:56:06.309Z,6.97
2023-04-15T03:58:33.771Z,6.67
2023-04-15T04:01:01.428Z,6.69
2023-04-15T04:03:29.026Z,6.79
2023-04-15T04:05:57.087Z,6.75
2023-04-15T04:08:24.385Z,6.58
2023-04-15T04:10:52.002Z,6.54
2023-04-15T04:13:19.266Z,6.50
2023-04-15T04:15:46.659Z,6.48
2023-04-15T04:18:13.952Z,6.57
2023-04-15T04:20:42.072Z,6.48
2023-04-15T04:23:09.337Z,6.43
2023-04-15T04:25:36.946Z,6.45
2023-04-15T04:28:04.527Z,6.51
2023-04-15T04:30:32.070Z,6.60
2023-04-15T04:32:59.569Z,6.54
2023-04-15T04:35:26.670Z,6.58
2023-04-15T04:37:54.381Z,6.69
2023-04-15T04:40:21.683Z,6.57
2023-04-15T04:42:49.242Z,6.73
2023-04-15T04:45:16.552Z,6.71
2023-04-15T04:47:44.301Z,6.67
2023-04-15T04:50:11.962Z,6.71
2023-04-15T04:52:39.946Z,6.69
2023-04-15T04:55:08.899Z,6.68
2023-04-15T04:57:36.883Z,6.62
2023-04-15T05:00:05.300Z,6.66
2023-04-15T05:02:33.316Z,6.72
2023-04-15T05:05:01.370Z,6.80
2023-04-15T05:07:28.905Z,6.88
2023-04-15T05:09:56.971Z,7.02
2023-04-15T05:12:24.565Z,7.05
2023-04-15T05:14:51.894Z,7.15
2023-04-15T05:17:19.394Z,7.09
2023-04-15T05:19:46.736Z,7.06
2023-04-15T05:22:14.384Z,7.18
2023-04-15T05:24:41.712Z,7.13
2023-04-15T05:27:10.924Z,7.18
2023-04-15T05:29:38.011Z,7.20
2023-04-15T05:32:05.849Z,7.23
2023-04-15T05:34:33.349Z,7.34
2023-04-15T05:37:01.109Z,7.50
2023-04-15T05:39:28.333Z,7.53
2023-04-15T05:41:56.124Z,7.63
2023-04-15T05:44:23.573Z,7.67
2023-04-15T05:46:50.885Z,7.87
2023-04-15T05:49:18.644Z,7.83
2023-04-15T05:51:46.096Z,7.92
2023-04-15T05:54:18.630Z,8.06
2023-04-15T05:56:47.577Z,8.04
2023-04-15T05:59:14.975Z,8.13
2023-04-15T06:01:42.415Z,8.19
2023-04-15T06:04:10.056Z,8.25
2023-04-15T06:06:38.704Z,8.30
2023-04-15T06:09:06.536Z,8.50
2023-04-15T06:11:34.226Z,8.53
2023-04-15T06:14:01.606Z,8.59
2023-04-15T06:16:29.306Z,8.91
2023-04-15T06:18:56.535Z,8.85
2023-04-15T06:21:23.888Z,8.97
2023-04-15T06:23:51.308Z,9.00
2023-04-15T06:26:18.614Z,8.85
2023-04-15T06:28:46.184Z,9.10
2023-04-15T06:31:13.514Z,8.91
2023-04-15T06:33:40.973Z,9.15
2023-04-15T06:36:08.426Z,9.07
2023-04-15T06:38:36.284Z,9.22
2023-04-15T06:41:04.146Z,9.43
2023-04-15T06:43:31.665Z,9.70
2023-04-15T06:45:59.013Z,9.84
2023-04-15T06:48:26.793Z,9.85
2023-04-15T06:50:54.204Z,10.20
2023-04-15T06:53:22.546Z,10.21
2023-04-15T06:55:49.986Z,10.55
2023-04-15T06:58:17.503Z,10.52
2023-04-15T07:00:45.347Z,10.31
2023-04-15T07:03:13.555Z,10.28
2023-04-15T07:05:41.826Z,10.16
2023-04-15T07:08:09.291Z,10.15
2023-04-15T07:10:37.390Z,9.80
2023-04-15T07:13:06.004Z,9.85
2023-04-15T07:15:33.372Z,10.31
2023-04-15T07:18:01.009Z,10.27
2023-04-15T07:20:28.724Z,10.84
2023-04-15T07:22:56.204Z,10.69
2023-04-15T07:25:23.509Z,10.81
2023-04-15T07:27:51.084Z,11.38
2023-04-15T07:30:18.224Z,11.04
2023-04-15T07:32:46.044Z,11.19
2023-04-15T07:35:13.683Z,11.21
2023-04-15T07:37:41.871Z,11.67
2023-04-15T07:40:10.481Z,11.74
2023-04-15T07:42:39.396Z,11.41
2023-04-15T07:45:08.591Z,10.92
2023-04-15T07:47:36.297Z,11.19
2023-04-15T07:50:03.786Z,11.63
2023-04-15T07:52:31.250Z,11.37
2023-04-15T07:54:59.038Z,11.30
2023-04-15T07:57:26.405Z,11.71
2023-04-15T07:59:53.738Z,11.57
2023-04-15T08:02:21.352Z,12.08
2023-04-15T08:04:49.065Z,12.41
2023-04-15T08:07:16.667Z,11.58
2023-04-15T08:09:44.129Z,11.55
2023-04-15T08:12:13.590Z,11.75
2023-04-15T08:14:41.049Z,11.20
2023-04-15T08:17:08.388Z,11.33
2023-04-15T08:19:36.207Z,11.64
2023-04-15T08:22:03.407Z,11.58
2023-04-15T08:24:31.984Z,11.69
2023-04-15T08:27:00.184Z,11.86
2023-04-15T08:29:27.767Z,12.17
2023-04-15T08:31:55.427Z,11.85
2023-04-15T08:34:38.563Z,11.63
2023-04-15T08:37:05.464Z,11.61
2023-04-15T08:39:32.875Z,11.62
2023-04-15T08:42:04.067Z,11.53
2023-04-15T08:44:34.911Z,11.87
2023-04-15T08:47:06.402Z,12.04
2023-04-15T08:49:36.449Z,12.14
2023-04-15T08:52:04.777Z,11.63
2023-04-15T08:54:32.527Z,12.50
2023-04-15T08:57:00.115Z,12.74
2023-04-15T08:59:27.363Z,12.74
2023-04-15T09:01:55.725Z,12.94
2023-04-15T09:04:23.115Z,13.22
2023-04-15T09:06:50.722Z,13.07
2023-04-15T09:09:18.276Z,13.33
2023-04-15T09:11:45.867Z,13.09
2023-04-15T09:14:13.733Z,12.20
2023-04-15T09:17:10.728Z,12.83
2023-04-15T09:19:38.262Z,13.20
2023-04-15T09:22:05.814Z,13.69
2023-04-15T09:24:39.252Z,14.28
2023-04-15T09:27:07.083Z,13.67
2023-04-15T09:29:34.692Z,14.11
2023-04-15T09:32:15.788Z,13.88
2023-04-15T09:34:43.757Z,14.54
2023-04-15T09:37:11.439Z,15.11
2023-04-15T09:39:50.908Z,14.44
2023-04-15T09:42:24.835Z,13.37
2023-04-15T09:44:53.524Z,14.44
2023-04-15T09:47:33.191Z,15.11
2023-04-15T09:50:02.119Z,16.08
2023-04-15T09:52:30.382Z,15.83
2023-04-15T09:54:59.966Z,14.88
2023-04-15T09:57:35.590Z,13.02
2023-04-15T10:00:08.996Z,12.59
2023-04-15T10:02:36.915Z,12.84
2023-04-15T10:05:04.904Z,13.16
2023-04-15T10:07:33.108Z,13.20
2023-04-15T10:10:04.089Z,13.11
2023-04-15T10:12:33.773Z,13.53
2023-04-15T10:15:08.152Z,12.58
2023-04-15T10:17:37.398Z,13.21
2023-04-15T10:20:06.669Z,13.65
2023-04-15T10:22:33.951Z,13.76
2023-04-15T10:25:01.533Z,13.35
2023-04-15T10:27:29.495Z,13.91
2023-04-15T10:29:57.318Z,14.41
2023-04-15T10:32:26.461Z,13.52
2023-04-15T10:34:54.729Z,14.59
2023-04-15T10:37:23.559Z,14.28
2023-04-15T10:39:51.588Z,14.63
2023-04-15T10:42:20.439Z,13.60
2023-04-15T10:44:52.204Z,13.91
2023-04-15T10:47:21.814Z,13.18
2023-04-15T10:49:59.640Z,13.56
2023-04-15T10:52:28.964Z,13.92
2023-04-15T10:55:09.731Z,13.96
2023-04-15T10:57:41.410Z,13.10
2023-04-15T11:00:09.533Z,12.57
2023-04-15T11:02:46.819Z,12.28
2023-04-15T11:05:19.033Z,13.21
2023-04-15T11:07:51.817Z,12.90
2023-04-15T11:10:19.106Z,13.06
2023-04-15T11:12:46.898Z,13.53
2023-04-15T11:15:38.305Z,13.93
2023-04-15T11:18:13.895Z,13.72
2023-04-15T11:20:45.423Z,13.46
2023-04-15T11:23:14.764Z,13.40
2023-04-15T11:25:43.845Z,13.43
2023-04-15T11:28:12.488Z,14.15
2023-04-15T11:30:40.550Z,14.57
2023-04-15T11:33:11.017Z,13.95
2023-04-15T11:35:38.518Z,13.67
2023-04-15T11:38:09.001Z,13.15
2023-04-15T11:40:36.565Z,13.27
2023-04-15T11:43:09.868Z,13.28
2023-04-15T11:45:38.075Z,13.26
2023-04-15T11:48:11.168Z,13.65
2023-04-15T11:50:40.930Z,13.11
2023-04-15T11:53:09.900Z,13.02
2023-04-15T11:55:49.830Z,13.47
2023-04-15T11:58:17.961Z,13.52
2023-04-15T12:00:48.959Z,14.30
2023-04-15T12:03:37.355Z,14.11
2023-04-15T12:06:07.718Z,14.73
2023-04-15T12:08:55.917Z,14.57
2023-04-15T12:11:38.020Z,14.22
2023-04-15T12:14:29.350Z,15.07
2023-04-15T12:17:00.168Z,13.99
2023-04-15T12:19:33.089Z,13.86
2023-04-15T12:22:05.708Z,14.95
2023-04-15T12:24:33.297Z,14.27
2023-04-15T12:27:08.956Z,12.89
2023-04-15T12:29:38.991Z,12.12
2023-04-15T12:32:13.693Z,12.45
2023-04-15T12:34:45.684Z,12.39
2023-04-15T12:37:16.424Z,13.10
2023-04-15T12:39:46.031Z,13.96
2023-04-15T12:42:13.525Z,14.03
2023-04-15T12:44:40.555Z,12.97
2023-04-15T12:47:08.346Z,13.39
2023-04-15T12:49:35.439Z,14.19
2023-04-15T12:52:03.000Z,13.14
2023-04-15T12:54:30.625Z,13.57
2023-04-15T12:56:57.844Z,14.11
2023-04-15T12:59:24.907Z,13.43
2023-04-15T13:01:52.601Z,14.20
2023-04-15T13:04:20.768Z,13.70
2023-04-15T13:06:47.769Z,12.90
2023-04-15T13:09:15.808Z,12.73
2023-04-15T13:11:42.693Z,13.33
2023-04-15T13:14:11.673Z,13.90
2023-04-15T13:16:39.011Z,13.69
2023-04-15T13:19:05.917Z,13.22
2023-04-15T13:21:35.781Z,14.06
2023-04-15T13:24:04.531Z,14.10
2023-04-15T13:26:33.286Z,13.37
2023-04-15T13:29:01.275Z,13.56
2023-04-15T13:31:28.396Z,12.68
2023-04-15T13:33:55.381Z,12.36
2023-04-15T13:36:22.341Z,12.13
2023-04-15T13:38:51.196Z,11.77
2023-04-15T13:41:20.394Z,11.72
2023-04-15T13:43:47.710Z,11.77
2023-04-15T13:46:15.385Z,11.78
2023-04-15T13:48:42.994Z,11.54
2023-04-15T13:51:10.111Z,11.97
2023-04-15T13:53:38.931Z,13.05
2023-04-15T13:56:10.080Z,13.02
2023-04-15T13:58:37.826Z,12.09
2023-04-15T14:01:06.302Z,12.81
2023-04-15T14:03:35.250Z,12.42
2023-04-15T14:06:02.269Z,13.17
2023-04-15T14:08:30.081Z,11.89
2023-04-15T14:10:57.724Z,11.68
2023-04-15T14:13:24.835Z,11.74
2023-04-15T14:15:51.691Z,11.41
2023-04-15T14:18:18.687Z,11.46
2023-04-15T14:20:46.202Z,11.42
2023-04-15T14:23:13.052Z,11.54
2023-04-15T14:25:40.001Z,11.84
2023-04-15T14:28:06.645Z,11.51
2023-04-15T14:30:33.854Z,11.32
2023-04-15T14:33:01.101Z,11.30
2023-04-15T14:35:28.048Z,10.92
2023-04-15T14:37:55.770Z,11.48
2023-04-15T14:40:23.189Z,11.59
2023-04-15T14:42:50.005Z,11.50
2023-04-15T14:45:18.083Z,11.30
2023-04-15T14:47:45.717Z,11.57
2023-04-15T14:50:13.286Z,11.57
2023-04-15T14:52:40.630Z,11.29
2023-04-15T14:55:12.501Z,11.47
2023-04-15T14:57:41.689Z,11.29
2023-04-15T15:00:10.768Z,11.31
2023-04-15T15:02:40.444Z,11.31
2023-04-15T15:05:09.951Z,11.46
2023-04-15T15:07:38.435Z,10.54
2023-04-15T15:10:06.448Z,10.40
2023-04-15T15:12:34.356Z,10.61
2023-04-15T15:15:06.843Z,10.35
2023-04-15T15:17:40.356Z,10.37
2023-04-15T15:20:07.936Z,10.60
2023-04-15T15:22:35.376Z,10.80
2023-04-15T15:25:02.765Z,11.15
2023-04-15T15:27:30.382Z,10.84
2023-04-15T15:29:59.618Z,10.72
2023-04-15T15:32:27.061Z,10.79
2023-04-15T15:34:54.469Z,10.74
2023-04-15T15:37:21.738Z,10.45
2023-04-15T15:39:51.022Z,10.50
2023-04-15T15:42:19.239Z,10.75
2023-04-15T15:44:46.472Z,11.00
2023-04-15T15:47:13.180Z,11.35
2023-04-15T15:49:40.096Z,11.70
2023-04-15T15:52:06.926Z,11.44
2023-04-15T15:54:34.861Z,10.46
2023-04-15T15:57:01.782Z,9.92
2023-04-15T15:59:28.708Z,9.86
2023-04-15T16:01:55.738Z,9.77
2023-04-15T16:04:23.457Z,9.73
2023-04-15T16:06:50.648Z,9.71
2023-04-15T16:09:17.940Z,9.70
2023-04-15T16:11:45.761Z,9.80
2023-04-15T16:14:13.982Z,9.75
2023-04-15T16:16:40.862Z,9.62
2023-04-15T16:19:07.766Z,9.84
2023-04-15T16:21:34.995Z,9.80
2023-04-15T16:24:02.244Z,9.94
2023-04-15T16:26:29.062Z,10.22
2023-04-15T16:28:55.762Z,10.08
2023-04-15T16:31:22.928Z,9.82
2023-04-15T16:33:49.629Z,9.97
2023-04-15T16:36:16.519Z,9.66
2023-04-15T16:38:45.417Z,9.48
2023-04-15T16:41:12.216Z,9.22
2023-04-15T16:43:38.986Z,9.18
2023-04-15T16:46:05.998Z,8.87
2023-04-15T16:48:33.290Z,8.93
2023-04-15T16:51:00.149Z,9.06
2023-04-15T16:53:26.929Z,8.94
2023-04-15T16:55:53.674Z,8.80
2023-04-15T16:58:20.472Z,8.96
2023-04-15T17:00:47.140Z,9.08
2023-04-15T17:03:14.070Z,9.26
2023-04-15T17:05:42.631Z,9.36
2023-04-15T17:08:10.066Z,9.01
2023-04-15T17:10:37.542Z,8.95
2023-04-15T17:13:05.143Z,9.13
2023-04-15T17:15:32.422Z,8.97
2023-04-15T17:17:59.983Z,8.98
2023-04-15T17:20:27.277Z,8.87
2023-04-15T17:22:54.880Z,8.94
2023-04-15T17:25:23.161Z,9.03
2023-04-15T17:27:50.740Z,8.96
2023-04-15T17:30:18.139Z,8.95
2023-04-15T17:32:45.651Z,8.90
2023-04-15T17:35:12.935Z,8.78
2023-04-15T17:37:40.499Z,8.77
2023-04-15T17:40:09.044Z,8.78
2023-04-15T17:42:36.529Z,8.59
2023-04-15T17:45:04.045Z,8.51
2023-04-15T17:47:31.444Z,8.51
2023-04-15T17:49:58.864Z,8.50
2023-04-15T17:52:26.413Z,8.49
2023-04-15T17:54:53.947Z,8.46
2023-04-15T17:57:20.869Z,8.52
2023-04-15T17:59:48.727Z,8.53
2023-04-15T18:02:16.209Z,8.34
2023-04-15T18:04:43.813Z,8.33
2023-04-15T18:07:11.002Z,8.43
2023-04-15T18:09:38.302Z,8.29
2023-04-15T18:12:08.185Z,8.12
2023-04-15T18:14:36.363Z,8.14
2023-04-15T18:17:03.578Z,8.18
2023-04-15T18:19:32.299Z,8.19
2023-04-15T18:22:02.280Z,8.16
2023-04-15T18:24:30.580Z,8.16
2023-04-15T18:26:57.759Z,8.16
2023-04-15T18:29:25.842Z,8.15
2023-04-15T18:31:53.290Z,8.19
2023-04-15T18:34:20.850Z,8.03
2023-04-15T18:36:48.180Z,8.07
2023-04-15T18:39:17.052Z,8.05
2023-04-15T18:41:44.444Z,8.04
2023-04-15T18:44:11.855Z,8.06
2023-04-15T18:46:39.386Z,7.87
2023-04-15T18:49:06.956Z,7.76
2023-04-15T18:51:34.110Z,7.75
2023-04-15T18:54:01.740Z,7.72
2023-04-15T18:56:29.314Z,7.71
2023-04-15T18:59:27.792Z,7.73
2023-04-15T19:01:44.056Z,7.62
2023-04-15T19:04:12.153Z,7.55
2023-04-15T19:06:39.646Z,7.65
2023-04-15T19:09:07.354Z,7.65
2023-04-15T19:11:34.884Z,7.66
2023-04-15T19:14:02.651Z,7.66
2023-04-15T19:16:30.052Z,7.63
2023-04-15T19:18:57.334Z,7.54
2023-04-15T19:21:24.987Z,7.51
2023-04-15T19:23:52.365Z,7.50
2023-04-15T19:26:19.364Z,7.53
2023-04-15T19:28:46.680Z,7.48
2023-04-15T19:31:14.064Z,7.46
2023-04-15T19:33:41.403Z,7.43
2023-04-15T19:36:08.693Z,7.47
2023-04-15T19:38:36.328Z,7.40
2023-04-15T19:41:03.945Z,7.44
2023-04-15T19:43:32.751Z,7.46
2023-04-15T19:46:00.487Z,7.50
2023-04-15T19:48:27.948Z,7.49
2023-04-15T19:50:55.281Z,7.49
2023-04-15T19:53:22.562Z,7.50
2023-04-15T19:55:49.904Z,7.59
2023-04-15T19:58:17.144Z,7.60
2023-04-15T20:00:44.623Z,7.57
2023-04-15T20:03:12.124Z,7.61
2023-04-15T20:05:40.025Z,7.60
2023-04-15T20:08:07.486Z,7.59
2023-04-15T20:10:35.685Z,7.60
2023-04-15T20:13:02.964Z,7.66
2023-04-15T20:15:30.529Z,7.63
2023-04-15T20:17:57.946Z,7.63
2023-04-15T20:20:25.202Z,7.62
2023-04-15T20:22:53.487Z,7.65
2023-04-15T20:25:20.733Z,7.64
2023-04-15T20:27:48.080Z,7.67
2023-04-15T20:30:15.482Z,7.68
2023-04-15T20:32:43.099Z,7.70
2023-04-15T20:35:10.755Z,7.69
2023-04-15T20:37:38.843Z,7.69
2023-04-15T20:40:07.166Z,7.69
2023-04-15T20:42:34.833Z,7.75
2023-04-15T20:45:02.416Z,7.77
2023-04-15T20:47:30.694Z,7.78
2023-04-15T20:49:58.083Z,7.83
2023-04-15T20:52:25.850Z,7.84
2023-04-15T20:54:53.027Z,7.85
2023-04-15T20:57:20.807Z,7.85
2023-04-15T20:59:47.957Z,7.86
2023-04-15T21:02:15.511Z,7.84
2023-04-15T21:04:42.822Z,7.78
2023-04-15T21:07:10.788Z,7.75
2023-04-15T21:09:41.584Z,7.79
2023-04-15T21:12:10.166Z,7.78
2023-04-15T21:14:37.926Z,7.81
2023-04-15T21:17:10.794Z,7.84
2023-04-15T21:19:38.697Z,7.83
2023-04-15T21:22:06.427Z,7.75
2023-04-15T21:24:34.090Z,7.78
2023-04-15T21:27:02.179Z,7.81
2023-04-15T21:29:29.805Z,7.85
2023-04-15T21:31:57.328Z,7.85
2023-04-15T21:34:24.732Z,7.88
2023-04-15T21:36:51.719Z,7.85
2023-04-15T21:39:18.940Z,7.86
2023-04-15T21:41:46.732Z,7.88
2023-04-15T21:44:14.979Z,7.88
2023-04-15T21:46:45.965Z,7.88
2023-04-15T21:49:14.149Z,7.94
2023-04-15T21:51:41.408Z,7.94
2023-04-15T21:54:08.662Z,7.94
2023-04-15T21:56:37.051Z,7.95
2023-04-15T21:59:04.600Z,7.96
2023-04-15T22:01:32.472Z,7.97
2023-04-15T22:03:59.911Z,8.02
2023-04-15T22:06:27.607Z,8.00
2023-04-15T22:08:57.772Z,8.00
2023-04-15T22:11:30.380Z,7.98
2023-04-15T22:13:58.804Z,7.96
2023-04-15T22:16:26.995Z,7.93
2023-04-15T22:18:55.405Z,7.91
2023-04-15T22:21:22.897Z,7.96
2023-04-15T22:23:51.204Z,7.95
2023-04-15T22:26:18.469Z,7.96
2023-04-15T22:28:45.977Z,7.98
2023-04-15T22:31:13.885Z,7.97
2023-04-15T22:33:41.286Z,7.98
2023-04-15T22:36:08.517Z,7.93
2023-04-15T22:38:36.096Z,7.91
2023-04-15T22:41:03.266Z,7.82
2023-04-15T22:43:30.835Z,7.76
2023-04-15T22:45:58.216Z,7.71
2023-04-15T22:48:25.568Z,7.71
2023-04-15T22:50:53.235Z,7.64
2023-04-15T22:53:20.566Z,7.60
2023-04-15T22:55:48.745Z,7.59
2023-04-15T22:58:17.298Z,7.56
2023-04-15T23:00:45.220Z,7.53
2023-04-15T23:03:12.662Z,7.51
2023-04-15T23:05:41.447Z,7.54
2023-04-15T23:08:08.862Z,7.53
2023-04-15T23:10:36.079Z,7.50
2023-04-15T23:13:03.300Z,7.48
2023-04-15T23:15:30.873Z,7.45
2023-04-15T23:17:58.160Z,7.39
2023-04-15T23:20:25.721Z,7.36
2023-04-15T23:22:52.921Z,7.30
2023-04-15T23:25:22.516Z,7.32
2023-04-15T23:27:49.977Z,7.29
2023-04-15T23:30:17.343Z,7.23
2023-04-15T23:32:44.991Z,7.23
2023-04-15T23:35:12.280Z,7.25
2023-04-15T23:37:39.483Z,7.26
2023-04-15T23:40:07.486Z,7.26
2023-04-15T23:42:34.580Z,7.24
2023-04-15T23:45:02.106Z,7.24
2023-04-15T23:47:29.360Z,7.25
2023-04-15T23:49:56.784Z,7.20
2023-04-15T23:52:24.301Z,7.16
2023-04-15T23:54:51.491Z,7.19
2023-04-15T23:57:19.043Z,7.20
2023-04-15T23:59:46.551Z,7.11
